sensor_id;sensor_type;location;lat;lon;timestamp;pressure;altitude;pressure_sealevel;temperature;humidity
18985;BME280;9626;52.552;13.436;2023-01-29T00:01:09;102088.63;;;-1.35;100.00
18985;BME280;9626;52.552;13.436;2023-01-29T00:03:35;102086.13;;;-1.33;100.00
18985;BME280;9626;52.552;13.436;2023-01-29T00:06:05;102086.28;;;-1.30;100.00
18985;BME280;9626;52.552;13.436;2023-01-29T00:08:36;102087.22;;;-1.28;100.00
18985;BME280;9626;52.552;13.436;2023-01-29T00:11:03;102082.03;;;-1.28;100.00
18985;BME280;9626;52.552;13.436;2023-01-29T00:13:30;102077.91;;;-1.25;100.00
18985;BME280;9626;52.552;13.436;2023-01-29T00:15:57;102088.22;;;-1.26;100.00
18985;BME280;9626;52.552;13.436;2023-01-29T00:18:24;102083.97;;;-1.24;100.00
18985;BME280;9626;52.552;13.436;2023-01-29T00:20:50;102075.88;;;-1.30;100.00
18985;BME280;9626;52.552;13.436;2023-01-29T00:23:16;102077.81;;;-1.26;100.00
18985;BME280;9626;52.552;13.436;2023-01-29T00:25:42;102085.63;;;-1.26;100.00
18985;BME280;9626;52.552;13.436;2023-01-29T00:28:09;102077.69;;;-1.29;100.00
18985;BME280;9626;52.552;13.436;2023-01-29T00:30:35;102072.63;;;-1.26;100.00
18985;BME280;9626;52.552;13.436;2023-01-29T00:33:02;102076.19;;;-1.24;100.00
18985;BME280;9626;52.552;13.436;2023-01-29T00:35:29;102081.38;;;-1.24;100.00
18985;BME280;9626;52.552;13.436;2023-01-29T00:37:55;102070.91;;;-1.26;100.00
18985;BME280;9626;52.552;13.436;2023-01-29T00:40:22;102053.63;;;-1.25;100.00
18985;BME280;9626;52.552;13.436;2023-01-29T00:42:49;102056.88;;;-1.29;100.00
18985;BME280;9626;52.552;13.436;2023-01-29T00:45:33;102040.56;;;-1.27;100.00
18985;BME280;9626;52.552;13.436;2023-01-29T00:48:02;102054.22;;;-1.31;100.00
18985;BME280;9626;52.552;13.436;2023-01-29T00:50:29;102043.06;;;-1.28;100.00
18985;BME280;9626;52.552;13.436;2023-01-29T00:52:55;102045.97;;;-1.22;100.00
18985;BME280;9626;52.552;13.436;2023-01-29T00:55:21;102047.91;;;-1.18;100.00
18985;BME280;9626;52.552;13.436;2023-01-29T00:57:48;102048.72;;;-1.19;100.00
18985;BME280;9626;52.552;13.436;2023-01-29T01:00:16;102049.78;;;-1.15;100.00
18985;BME280;9626;52.552;13.436;2023-01-29T01:02:43;102048.84;;;-1.16;100.00
18985;BME280;9626;52.552;13.436;2023-01-29T01:05:28;102042.78;;;-1.16;100.00
18985;BME280;9626;52.552;13.436;2023-01-29T01:07:56;102047.75;;;-1.21;100.00
18985;BME280;9626;52.552;13.436;2023-01-29T01:10:26;102054.81;;;-1.18;100.00
18985;BME280;9626;52.552;13.436;2023-01-29T01:12:58;102057.66;;;-1.14;100.00
18985;BME280;9626;52.552;13.436;2023-01-29T01:15:28;102057.66;;;-1.14;100.00
18985;BME280;9626;52.552;13.436;2023-01-29T01:17:57;102060.97;;;-1.16;100.00
18985;BME280;9626;52.552;13.436;2023-01-29T01:20:24;102050.78;;;-1.12;100.00
18985;BME280;9626;52.552;13.436;2023-01-29T01:22:52;102045.78;;;-1.09;100.00
18985;BME280;9626;52.552;13.436;2023-01-29T01:25:19;102057.06;;;-1.08;100.00
18985;BME280;9626;52.552;13.436;2023-01-29T01:27:46;102059.78;;;-1.05;100.00
18985;BME280;9626;52.552;13.436;2023-01-29T01:30:14;102047.03;;;-1.00;100.00
18985;BME280;9626;52.552;13.436;2023-01-29T01:32:41;102047.72;;;-1.05;100.00
18985;BME280;9626;52.552;13.436;2023-01-29T01:35:09;102045.84;;;-1.07;100.00
18985;BME280;9626;52.552;13.436;2023-01-29T01:37:35;102050.91;;;-1.10;100.00
18985;BME280;9626;52.552;13.436;2023-01-29T01:40:04;102054.06;;;-1.16;100.00
18985;BME280;9626;52.552;13.436;2023-01-29T01:42:40;102046.91;;;-1.20;100.00
18985;BME280;9626;52.552;13.436;2023-01-29T01:45:16;102053.78;;;-1.22;100.00
18985;BME280;9626;52.552;13.436;2023-01-29T01:47:47;102052.97;;;-1.21;100.00
18985;BME280;9626;52.552;13.436;2023-01-29T01:50:22;102053.19;;;-1.16;100.00
18985;BME280;9626;52.552;13.436;2023-01-29T01:52:52;102048.06;;;-1.15;100.00
18985;BME280;9626;52.552;13.436;2023-01-29T01:55:23;102046.19;;;-1.17;100.00
18985;BME280;9626;52.552;13.436;2023-01-29T01:57:55;102041.06;;;-1.16;100.00
18985;BME280;9626;52.552;13.436;2023-01-29T02:00:23;102046.19;;;-1.17;100.00
18985;BME280;9626;52.552;13.436;2023-01-29T02:02:51;102034.69;;;-1.23;100.00
18985;BME280;9626;52.552;13.436;2023-01-29T02:05:36;102032.44;;;-1.15;100.00
18985;BME280;9626;52.552;13.436;2023-01-29T02:08:33;102025.78;;;-1.10;100.00
18985;BME280;9626;52.552;13.436;2023-01-29T02:11:19;102025.84;;;-1.08;100.00
18985;BME280;9626;52.552;13.436;2023-01-29T02:13:45;102021.47;;;-1.09;100.00
18985;BME280;9626;52.552;13.436;2023-01-29T02:16:11;102031.66;;;-1.14;100.00
18985;BME280;9626;52.552;13.436;2023-01-29T02:18:37;102033.59;;;-1.10;100.00
18985;BME280;9626;52.552;13.436;2023-01-29T02:21:19;102030.38;;;-1.04;100.00
18985;BME280;9626;52.552;13.436;2023-01-29T02:24:35;102027.03;;;-1.02;100.00
18985;BME280;9626;52.552;13.436;2023-01-29T02:27:18;102016.56;;;-1.03;100.00
18985;BME280;9626;52.552;13.436;2023-01-29T02:30:04;102008.84;;;-1.02;100.00
18985;BME280;9626;52.552;13.436;2023-01-29T02:32:36;102018.50;;;-0.99;100.00
18985;BME280;9626;52.552;13.436;2023-01-29T02:35:19;102017.47;;;-1.03;100.00
18985;BME280;9626;52.552;13.436;2023-01-29T02:43:31;102021.72;;;-1.05;100.00
18985;BME280;9626;52.552;13.436;2023-01-29T02:46:17;102017.47;;;-1.03;100.00
18985;BME280;9626;52.552;13.436;2023-01-29T02:48:56;102021.84;;;-1.02;100.00
18985;BME280;9626;52.552;13.436;2023-01-29T02:51:48;102011.38;;;-1.03;100.00
18985;BME280;9626;52.552;13.436;2023-01-29T02:54:19;102012.91;;;-1.07;100.00
18985;BME280;9626;52.552;13.436;2023-01-29T02:56:55;102008.69;;;-1.05;100.00
18985;BME280;9626;52.552;13.436;2023-01-29T02:59:26;102008.03;;;-1.00;100.00
18985;BME280;9626;52.552;13.436;2023-01-29T03:01:59;102005.38;;;-1.02;100.00
18985;BME280;9626;52.552;13.436;2023-01-29T03:04:30;102004.47;;;-1.03;100.00
18985;BME280;9626;52.552;13.436;2023-01-29T03:07:20;102001.13;;;-1.00;100.00
18985;BME280;9626;52.552;13.436;2023-01-29T03:10:39;101997.84;;;-0.96;100.00
18985;BME280;9626;52.552;13.436;2023-01-29T03:13:39;101999.44;;;-0.99;100.00
18985;BME280;9626;52.552;13.436;2023-01-29T03:16:32;101996.97;;;-0.96;100.00
18985;BME280;9626;52.552;13.436;2023-01-29T03:19:12;101997.09;;;-0.93;100.00
18985;BME280;9626;52.552;13.436;2023-01-29T03:21:43;101995.25;;;-0.96;100.00
18985;BME280;9626;52.552;13.436;2023-01-29T03:24:20;101997.91;;;-0.94;100.00
18985;BME280;9626;52.552;13.436;2023-01-29T03:27:09;102001.50;;;-0.92;100.00
18985;BME280;9626;52.552;13.436;2023-01-29T03:29:56;101991.75;;;-0.96;100.00
18985;BME280;9626;52.552;13.436;2023-01-29T03:32:43;101986.63;;;-0.95;100.00
18985;BME280;9626;52.552;13.436;2023-01-29T03:35:13;101980.69;;;-0.92;100.00
18985;BME280;9626;52.552;13.436;2023-01-29T03:37:47;101966.88;;;-0.91;100.00
18985;BME280;9626;52.552;13.436;2023-01-29T03:40:14;101969.63;;;-0.88;100.00
18985;BME280;9626;52.552;13.436;2023-01-29T03:45:55;101953.28;;;-0.86;100.00
18985;BME280;9626;52.552;13.436;2023-01-29T03:48:37;101941.00;;;-0.88;100.00
18985;BME280;9626;52.552;13.436;2023-01-29T03:53:49;101948.28;;;-0.81;100.00
18985;BME280;9626;52.552;13.436;2023-01-29T03:56:27;101946.34;;;-0.85;100.00
18985;BME280;9626;52.552;13.436;2023-01-29T03:59:03;101929.63;;;-0.90;100.00
18985;BME280;9626;52.552;13.436;2023-01-29T04:01:44;101925.09;;;-0.94;100.00
18985;BME280;9626;52.552;13.436;2023-01-29T04:04:17;101914.75;;;-0.93;100.00
18985;BME280;9626;52.552;13.436;2023-01-29T04:06:48;101912.25;;;-0.91;100.00
18985;BME280;9626;52.552;13.436;2023-01-29T04:09:20;101917.22;;;-0.96;100.00
18985;BME280;9626;52.552;13.436;2023-01-29T04:12:12;101905.94;;;-0.96;100.00
18985;BME280;9626;52.552;13.436;2023-01-29T04:14:40;101897.16;;;-0.98;100.00
18985;BME280;9626;52.552;13.436;2023-01-29T04:17:15;101896.50;;;-0.94;100.00
18985;BME280;9626;52.552;13.436;2023-01-29T04:19:43;101890.34;;;-0.96;100.00
18985;BME280;9626;52.552;13.436;2023-01-29T04:22:14;101892.03;;;-0.97;100.00
18985;BME280;9626;52.552;13.436;2023-01-29T04:24:42;101895.31;;;-1.01;100.00
18985;BME280;9626;52.552;13.436;2023-01-29T04:27:18;101893.31;;;-1.07;100.00
18985;BME280;9626;52.552;13.436;2023-01-29T04:33:03;101885.44;;;-1.08;100.00
18985;BME280;9626;52.552;13.436;2023-01-29T04:41:08;101877.66;;;-1.08;100.00
18985;BME280;9626;52.552;13.436;2023-01-29T04:43:44;101881.22;;;-1.06;100.00
18985;BME280;9626;52.552;13.436;2023-01-29T04:49:46;101880.69;;;-0.99;100.00
18985;BME280;9626;52.552;13.436;2023-01-29T04:52:18;101879.66;;;-1.03;100.00
18985;BME280;9626;52.552;13.436;2023-01-29T04:55:16;101883.75;;;-1.08;100.00
18985;BME280;9626;52.552;13.436;2023-01-29T05:00:27;101893.06;;;-1.13;100.00
18985;BME280;9626;52.552;13.436;2023-01-29T05:02:55;101899.19;;;-1.11;100.00
18985;BME280;9626;52.552;13.436;2023-01-29T05:05:21;101887.00;;;-1.12;100.00
18985;BME280;9626;52.552;13.436;2023-01-29T05:07:47;101888.88;;;-1.09;100.00
18985;BME280;9626;52.552;13.436;2023-01-29T05:10:16;101902.09;;;-1.05;100.00
18985;BME280;9626;52.552;13.436;2023-01-29T05:12:46;101903.72;;;-1.07;100.00
18985;BME280;9626;52.552;13.436;2023-01-29T05:15:19;101895.09;;;-1.06;100.00
18985;BME280;9626;52.552;13.436;2023-01-29T05:17:47;101896.16;;;-1.02;100.00
18985;BME280;9626;52.552;13.436;2023-01-29T05:20:14;101889.22;;;-1.02;100.00
18985;BME280;9626;52.552;13.436;2023-01-29T05:22:40;101898.81;;;-1.00;100.00
18985;BME280;9626;52.552;13.436;2023-01-29T05:25:27;101899.78;;;-0.98;100.00
18985;BME280;9626;52.552;13.436;2023-01-29T05:27:54;101903.28;;;-0.98;100.00
18985;BME280;9626;52.552;13.436;2023-01-29T05:30:30;101901.50;;;-0.99;100.00
18985;BME280;9626;52.552;13.436;2023-01-29T05:32:56;101904.22;;;-0.96;100.00
18985;BME280;9626;52.552;13.436;2023-01-29T05:35:22;101898.22;;;-0.95;100.00
18985;BME280;9626;52.552;13.436;2023-01-29T05:37:48;101894.63;;;-0.97;100.00
18985;BME280;9626;52.552;13.436;2023-01-29T05:40:14;101896.09;;;-1.04;100.00
18985;BME280;9626;52.552;13.436;2023-01-29T05:42:40;101901.34;;;-1.02;100.00
18985;BME280;9626;52.552;13.436;2023-01-29T05:45:07;101901.63;;;-0.96;100.00
18985;BME280;9626;52.552;13.436;2023-01-29T05:47:33;101898.97;;;-0.97;100.00
18985;BME280;9626;52.552;13.436;2023-01-29T05:49:59;101898.97;;;-0.97;100.00
18985;BME280;9626;52.552;13.436;2023-01-29T05:52:25;101898.09;;;-0.98;100.00
18985;BME280;9626;52.552;13.436;2023-01-29T05:54:51;101904.97;;;-0.98;100.00
18985;BME280;9626;52.552;13.436;2023-01-29T05:57:17;101911.16;;;-0.96;100.00
18985;BME280;9626;52.552;13.436;2023-01-29T05:59:43;101911.16;;;-0.96;100.00
18985;BME280;9626;52.552;13.436;2023-01-29T06:02:09;101915.69;;;-0.92;100.00
18985;BME280;9626;52.552;13.436;2023-01-29T06:04:35;101914.25;;;-0.86;100.00
18985;BME280;9626;52.552;13.436;2023-01-29T06:07:01;101911.78;;;-0.82;100.00
18985;BME280;9626;52.552;13.436;2023-01-29T06:09:29;101916.13;;;-0.83;100.00
18985;BME280;9626;52.552;13.436;2023-01-29T06:11:56;101923.25;;;-0.79;100.00
18985;BME280;9626;52.552;13.436;2023-01-29T06:14:22;101918.09;;;-0.77;100.00
18985;BME280;9626;52.552;13.436;2023-01-29T06:16:48;101918.09;;;-0.77;100.00
18985;BME280;9626;52.552;13.436;2023-01-29T06:19:14;101927.47;;;-0.81;100.00
18985;BME280;9626;52.552;13.436;2023-01-29T06:21:40;101927.59;;;-0.78;100.00
18985;BME280;9626;52.552;13.436;2023-01-29T06:24:06;101920.63;;;-0.79;100.00
18985;BME280;9626;52.552;13.436;2023-01-29T06:26:33;101913.56;;;-0.81;100.00
18985;BME280;9626;52.552;13.436;2023-01-29T06:28:59;101910.84;;;-0.84;100.00
18985;BME280;9626;52.552;13.436;2023-01-29T06:31:25;101909.94;;;-0.85;100.00
18985;BME280;9626;52.552;13.436;2023-01-29T06:33:51;101916.78;;;-0.87;100.00
18985;BME280;9626;52.552;13.436;2023-01-29T06:36:17;101907.41;;;-0.83;100.00
18985;BME280;9626;52.552;13.436;2023-01-29T06:38:43;101913.22;;;-0.89;100.00
18985;BME280;9626;52.552;13.436;2023-01-29T06:41:16;101906.38;;;-0.87;100.00
18985;BME280;9626;52.552;13.436;2023-01-29T06:43:43;101915.00;;;-0.88;100.00
18985;BME280;9626;52.552;13.436;2023-01-29T06:46:10;101915.75;;;-0.91;100.00
18985;BME280;9626;52.552;13.436;2023-01-29T06:48:36;101915.88;;;-0.88;100.00
18985;BME280;9626;52.552;13.436;2023-01-29T06:51:03;101923.47;;;-0.92;100.00
18985;BME280;9626;52.552;13.436;2023-01-29T06:53:30;101930.38;;;-0.93;100.00
18985;BME280;9626;52.552;13.436;2023-01-29T06:55:56;101933.88;;;-0.92;100.00
18985;BME280;9626;52.552;13.436;2023-01-29T06:58:22;101926.88;;;-0.93;100.00
18985;BME280;9626;52.552;13.436;2023-01-29T07:00:48;101927.38;;;-1.02;100.00
18985;BME280;9626;52.552;13.436;2023-01-29T07:03:14;101930.97;;;-0.98;100.00
18985;BME280;9626;52.552;13.436;2023-01-29T07:05:40;101918.13;;;-0.95;100.00
18985;BME280;9626;52.552;13.436;2023-01-29T07:08:06;101920.81;;;-0.94;100.00
18985;BME280;9626;52.552;13.436;2023-01-29T07:10:34;101917.53;;;-0.90;100.00
18985;BME280;9626;52.552;13.436;2023-01-29T07:13:01;101922.75;;;-0.90;100.00
18985;BME280;9626;52.552;13.436;2023-01-29T07:15:27;101916.50;;;-0.93;100.00
18985;BME280;9626;52.552;13.436;2023-01-29T07:20:24;101903.47;;;-0.93;100.00
18985;BME280;9626;52.552;13.436;2023-01-29T07:22:51;101901.03;;;-0.90;100.00
18985;BME280;9626;52.552;13.436;2023-01-29T07:25:17;101919.38;;;-0.87;100.00
18985;BME280;9626;52.552;13.436;2023-01-29T07:27:43;101934.16;;;-0.86;100.00
18985;BME280;9626;52.552;13.436;2023-01-29T07:30:09;101933.41;;;-0.83;100.00
18985;BME280;9626;52.552;13.436;2023-01-29T07:32:36;101931.84;;;-0.80;100.00
18985;BME280;9626;52.552;13.436;2023-01-29T07:35:02;101927.47;;;-0.81;100.00
18985;BME280;9626;52.552;13.436;2023-01-29T07:37:28;101923.38;;;-0.76;100.00
18985;BME280;9626;52.552;13.436;2023-01-29T07:39:54;101909.56;;;-0.75;100.00
18985;BME280;9626;52.552;13.436;2023-01-29T07:42:20;101905.16;;;-0.76;100.00
18985;BME280;9626;52.552;13.436;2023-01-29T07:44:46;101904.53;;;-0.70;100.00
18985;BME280;9626;52.552;13.436;2023-01-29T07:47:12;101910.63;;;-0.70;100.00
18985;BME280;9626;52.552;13.436;2023-01-29T07:49:38;101894.28;;;-0.67;100.00
18985;BME280;9626;52.552;13.436;2023-01-29T07:52:04;101876.16;;;-0.65;100.00
18985;BME280;9626;52.552;13.436;2023-01-29T07:54:30;101880.44;;;-0.66;100.00
18985;BME280;9626;52.552;13.436;2023-01-29T07:56:56;101881.44;;;-0.64;100.00
18985;BME280;9626;52.552;13.436;2023-01-29T07:59:22;101884.91;;;-0.63;100.00
18985;BME280;9626;52.552;13.436;2023-01-29T08:01:48;101891.09;;;-0.61;100.00
18985;BME280;9626;52.552;13.436;2023-01-29T08:04:14;101897.22;;;-0.59;100.00
18985;BME280;9626;52.552;13.436;2023-01-29T08:06:40;101875.66;;;-0.57;100.00
18985;BME280;9626;52.552;13.436;2023-01-29T08:09:07;101874.63;;;-0.60;100.00
18985;BME280;9626;52.552;13.436;2023-01-29T08:11:33;101866.97;;;-0.57;100.00
18985;BME280;9626;52.552;13.436;2023-01-29T08:13:59;101878.34;;;-0.55;100.00
18985;BME280;9626;52.552;13.436;2023-01-29T08:16:28;101872.88;;;-0.61;100.00
18985;BME280;9626;52.552;13.436;2023-01-29T08:18:54;101879.16;;;-0.56;100.00
18985;BME280;9626;52.552;13.436;2023-01-29T08:21:20;101892.31;;;-0.53;100.00
18985;BME280;9626;52.552;13.436;2023-01-29T08:23:46;101873.13;;;-0.55;100.00
18985;BME280;9626;52.552;13.436;2023-01-29T08:26:12;101870.66;;;-0.52;100.00
18985;BME280;9626;52.552;13.436;2023-01-29T08:28:38;101883.81;;;-0.49;100.00
18985;BME280;9626;52.552;13.436;2023-01-29T08:31:12;101878.75;;;-0.46;100.00
18985;BME280;9626;52.552;13.436;2023-01-29T08:33:38;101883.97;;;-0.46;100.00
18985;BME280;9626;52.552;13.436;2023-01-29T08:36:04;101870.13;;;-0.45;100.00
18985;BME280;9626;52.552;13.436;2023-01-29T08:38:31;101872.78;;;-0.43;100.00
18985;BME280;9626;52.552;13.436;2023-01-29T08:40:57;101873.69;;;-0.43;100.00
18985;BME280;9626;52.552;13.436;2023-01-29T08:43:23;101872.03;;;-0.41;100.00
18985;BME280;9626;52.552;13.436;2023-01-29T08:45:49;101870.38;;;-0.39;100.00
18985;BME280;9626;52.552;13.436;2023-01-29T08:48:15;101873.06;;;-0.37;100.00
18985;BME280;9626;52.552;13.436;2023-01-29T08:50:41;101879.16;;;-0.37;100.00
18985;BME280;9626;52.552;13.436;2023-01-29T08:53:07;101887.97;;;-0.33;100.00
18985;BME280;9626;52.552;13.436;2023-01-29T08:55:35;101868.13;;;-0.31;100.00
18985;BME280;9626;52.552;13.436;2023-01-29T08:58:03;101872.34;;;-0.33;100.00
18985;BME280;9626;52.552;13.436;2023-01-29T09:00:31;101859.50;;;-0.30;100.00
18985;BME280;9626;52.552;13.436;2023-01-29T09:02:57;101860.50;;;-0.26;100.00
18985;BME280;9626;52.552;13.436;2023-01-29T09:05:24;101865.78;;;-0.25;100.00
18985;BME280;9626;52.552;13.436;2023-01-29T09:07:50;101864.91;;;-0.25;100.00
18985;BME280;9626;52.552;13.436;2023-01-29T09:10:16;101867.63;;;-0.22;100.00
18985;BME280;9626;52.552;13.436;2023-01-29T09:12:42;101861.53;;;-0.23;100.00
18985;BME280;9626;52.552;13.436;2023-01-29T09:15:09;101874.50;;;-0.24;100.00
18985;BME280;9626;52.552;13.436;2023-01-29T09:17:35;101859.88;;;-0.21;100.00
18985;BME280;9626;52.552;13.436;2023-01-29T09:20:02;101865.22;;;-0.18;100.00
18985;BME280;9626;52.552;13.436;2023-01-29T09:22:29;101861.03;;;-0.14;100.00
18985;BME280;9626;52.552;13.436;2023-01-29T09:24:55;101854.31;;;-0.09;100.00
18985;BME280;9626;52.552;13.436;2023-01-29T09:27:21;101866.50;;;-0.08;100.00
18985;BME280;9626;52.552;13.436;2023-01-29T09:29:47;101867.44;;;-0.06;100.00
18985;BME280;9626;52.552;13.436;2023-01-29T09:32:13;101856.97;;;-0.07;100.00
18985;BME280;9626;52.552;13.436;2023-01-29T09:34:39;101848.41;;;-0.05;100.00
18985;BME280;9626;52.552;13.436;2023-01-29T09:37:05;101844.16;;;-0.03;100.00
18985;BME280;9626;52.552;13.436;2023-01-29T09:39:32;101851.81;;;-0.06;100.00
18985;BME280;9626;52.552;13.436;2023-01-29T09:47:15;101832.28;;;0.04;100.00
18985;BME280;9626;52.552;13.436;2023-01-29T09:49:46;101826.19;;;0.04;100.00
18985;BME280;9626;52.552;13.436;2023-01-29T09:52:19;101834.25;;;0.10;100.00
18985;BME280;9626;52.552;13.436;2023-01-29T09:55:03;101822.16;;;0.12;100.00
18985;BME280;9626;52.552;13.436;2023-01-29T09:57:47;101818.97;;;0.19;100.00
18985;BME280;9626;52.552;13.436;2023-01-29T10:00:23;101814.47;;;0.15;100.00
18985;BME280;9626;52.552;13.436;2023-01-29T10:11:41;101806.97;;;0.44;100.00
18985;BME280;9626;52.552;13.436;2023-01-29T10:19:36;101796.16;;;0.57;100.00
18985;BME280;9626;52.552;13.436;2023-01-29T10:24:46;101798.97;;;0.62;100.00
18985;BME280;9626;52.552;13.436;2023-01-29T10:27:16;101812.31;;;0.70;100.00
18985;BME280;9626;52.552;13.436;2023-01-29T10:29:45;101810.91;;;0.78;100.00
18985;BME280;9626;52.552;13.436;2023-01-29T10:32:17;101805.06;;;0.85;100.00
18985;BME280;9626;52.552;13.436;2023-01-29T10:34:52;101804.09;;;0.83;100.00
18985;BME280;9626;52.552;13.436;2023-01-29T10:37:23;101795.47;;;0.84;100.00
18985;BME280;9626;52.552;13.436;2023-01-29T10:39:51;101788.47;;;0.83;100.00
18985;BME280;9626;52.552;13.436;2023-01-29T10:42:32;101787.88;;;0.90;100.00
18985;BME280;9626;52.552;13.436;2023-01-29T10:45:30;101782.72;;;0.92;100.00
18985;BME280;9626;52.552;13.436;2023-01-29T10:50:47;101771.19;;;1.09;100.00
18985;BME280;9626;52.552;13.436;2023-01-29T10:53:37;101768.84;;;1.17;100.00
18985;BME280;9626;52.552;13.436;2023-01-29T10:58:58;101740.56;;;1.29;100.00
18985;BME280;9626;52.552;13.436;2023-01-29T11:01:26;101744.97;;;1.30;100.00
18985;BME280;9626;52.552;13.436;2023-01-29T11:04:00;101730.41;;;1.37;100.00
18985;BME280;9626;52.552;13.436;2023-01-29T11:06:34;101739.97;;;1.37;100.00
18985;BME280;9626;52.552;13.436;2023-01-29T11:11:56;101719.38;;;1.46;100.00
18985;BME280;9626;52.552;13.436;2023-01-29T11:14:53;101720.47;;;1.52;100.00
18985;BME280;9626;52.552;13.436;2023-01-29T11:17:23;101718.56;;;1.73;100.00
18985;BME280;9626;52.552;13.436;2023-01-29T11:19:52;101713.00;;;1.63;100.00
18985;BME280;9626;52.552;13.436;2023-01-29T11:22:25;101703.84;;;1.75;100.00
18985;BME280;9626;52.552;13.436;2023-01-29T11:27:48;101710.19;;;1.83;100.00
18985;BME280;9626;52.552;13.436;2023-01-29T11:30:20;101704.97;;;1.83;100.00
18985;BME280;9626;52.552;13.436;2023-01-29T11:32:51;101710.38;;;1.89;100.00
18985;BME280;9626;52.552;13.436;2023-01-29T11:35:23;101704.72;;;1.75;100.00
18985;BME280;9626;52.552;13.436;2023-01-29T11:37:50;101687.91;;;1.67;100.00
18985;BME280;9626;52.552;13.436;2023-01-29T11:40:28;101691.59;;;1.74;100.00
18985;BME280;9626;52.552;13.436;2023-01-29T11:43:11;101692.34;;;1.69;100.00
18985;BME280;9626;52.552;13.436;2023-01-29T11:45:38;101686.47;;;1.77;100.00
18985;BME280;9626;52.552;13.436;2023-01-29T11:48:05;101682.38;;;1.85;100.00
18985;BME280;9626;52.552;13.436;2023-01-29T11:50:38;101683.47;;;1.92;100.00
18985;BME280;9626;52.552;13.436;2023-01-29T11:53:04;101683.38;;;1.89;100.00
18985;BME280;9626;52.552;13.436;2023-01-29T11:55:34;101673.09;;;1.95;100.00
18985;BME280;9626;52.552;13.436;2023-01-29T11:58:15;101665.50;;;2.02;100.00
18985;BME280;9626;52.552;13.436;2023-01-29T12:00:45;101665.59;;;2.06;100.00
18985;BME280;9626;52.552;13.436;2023-01-29T12:03:36;101663.84;;;2.05;100.00
18985;BME280;9626;52.552;13.436;2023-01-29T12:09:09;101646.56;;;2.10;100.00
18985;BME280;9626;52.552;13.436;2023-01-29T12:11:38;101641.34;;;2.10;100.00
18985;BME280;9626;52.552;13.436;2023-01-29T12:14:19;101644.84;;;2.10;100.00
18985;BME280;9626;52.552;13.436;2023-01-29T12:17:12;101639.38;;;2.02;100.00
18985;BME280;9626;52.552;13.436;2023-01-29T12:19:49;101634.53;;;2.15;100.00
18985;BME280;9626;52.552;13.436;2023-01-29T12:22:26;101638.09;;;2.17;100.00
18985;BME280;9626;52.552;13.436;2023-01-29T12:25:32;101639.75;;;2.15;100.00
18985;BME280;9626;52.552;13.436;2023-01-29T12:36:25;101601.41;;;2.14;100.00
18985;BME280;9626;52.552;13.436;2023-01-29T12:38:54;101594.78;;;2.25;100.00
18985;BME280;9626;52.552;13.436;2023-01-29T12:41:32;101594.59;;;2.19;100.00
18985;BME280;9626;52.552;13.436;2023-01-29T12:47:33;101596.28;;;2.17;100.00
18985;BME280;9626;52.552;13.436;2023-01-29T12:50:05;101599.81;;;2.19;100.00
18985;BME280;9626;52.552;13.436;2023-01-29T12:55:09;101612.63;;;2.11;100.00
18985;BME280;9626;52.552;13.436;2023-01-29T12:57:49;101614.69;;;1.91;100.00
18985;BME280;9626;52.552;13.436;2023-01-29T13:00:25;101604.22;;;1.91;100.00
18985;BME280;9626;52.552;13.436;2023-01-29T13:05:46;101600.72;;;1.91;100.00
18985;BME280;9626;52.552;13.436;2023-01-29T13:08:29;101605.19;;;1.95;100.00
18985;BME280;9626;52.552;13.436;2023-01-29T13:10:58;101593.16;;;2.00;100.00
18985;BME280;9626;52.552;13.436;2023-01-29T13:13:30;101594.06;;;2.00;100.00
18985;BME280;9626;52.552;13.436;2023-01-29T13:15:58;101589.50;;;1.95;100.00
18985;BME280;9626;52.552;13.436;2023-01-29T13:18:35;101576.38;;;1.92;100.00
18985;BME280;9626;52.552;13.436;2023-01-29T13:21:03;101579.84;;;1.92;100.00
18985;BME280;9626;52.552;13.436;2023-01-29T13:23:37;101574.75;;;1.95;100.00
18985;BME280;9626;52.552;13.436;2023-01-29T13:26:04;101574.03;;;2.01;100.00
18985;BME280;9626;52.552;13.436;2023-01-29T13:28:31;101562.72;;;2.00;100.00
18985;BME280;9626;52.552;13.436;2023-01-29T13:34:13;101573.03;;;1.97;100.00
18985;BME280;9626;52.552;13.436;2023-01-29T13:36:45;101573.94;;;1.98;100.00
18985;BME280;9626;52.552;13.436;2023-01-29T13:39:28;101562.50;;;1.94;100.00
18985;BME280;9626;52.552;13.436;2023-01-29T13:41:56;101577.13;;;1.88;100.00
18985;BME280;9626;52.552;13.436;2023-01-29T13:44:35;101572.69;;;1.85;100.00
18985;BME280;9626;52.552;13.436;2023-01-29T13:47:05;101568.34;;;1.85;100.00
18985;BME280;9626;52.552;13.436;2023-01-29T13:49:41;101560.59;;;1.89;100.00
18985;BME280;9626;52.552;13.436;2023-01-29T13:54:53;101559.91;;;1.94;100.00
18985;BME280;9626;52.552;13.436;2023-01-29T14:10:29;101546.91;;;1.67;100.00
18985;BME280;9626;52.552;13.436;2023-01-29T14:18:23;101542.97;;;1.52;100.00
18985;BME280;9626;52.552;13.436;2023-01-29T14:23:23;101536.03;;;1.53;100.00
18985;BME280;9626;52.552;13.436;2023-01-29T14:25:53;101542.88;;;1.49;100.00
18985;BME280;9626;52.552;13.436;2023-01-29T14:28:22;101537.63;;;1.48;100.00
18985;BME280;9626;52.552;13.436;2023-01-29T14:30:49;101549.63;;;1.43;100.00
18985;BME280;9626;52.552;13.436;2023-01-29T14:33:39;101543.28;;;1.34;100.00
18985;BME280;9626;52.552;13.436;2023-01-29T14:36:10;101539.63;;;1.29;100.00
18985;BME280;9626;52.552;13.436;2023-01-29T14:38:39;101534.38;;;1.28;100.00
18985;BME280;9626;52.552;13.436;2023-01-29T14:41:29;101533.50;;;1.27;100.00
18985;BME280;9626;52.552;13.436;2023-01-29T14:46:59;101535.28;;;1.28;100.00
18985;BME280;9626;52.552;13.436;2023-01-29T14:49:51;101522.81;;;1.20;100.00
18985;BME280;9626;52.552;13.436;2023-01-29T14:52:22;101521.72;;;1.13;100.00
18985;BME280;9626;52.552;13.436;2023-01-29T14:54:49;101518.06;;;1.08;100.00
18985;BME280;9626;52.552;13.436;2023-01-29T14:57:17;101521.53;;;1.07;100.00